Acton, CA (93510)

2:25 AM PDT on July 29, 2016 (GMT -0700)
Star Point Ranch, Mary Road | | Change Station

Elev 3320 ft 34.50 °N, 118.16 °W | Updated 15 seconds ago

Clear
Clear
74.7 °F
Feels Like 77 °F
N
1.3
Wind Variable Wind from East
Gusts 2.5 mph

Today
High -- | Low -- °F
--% Chance of Precip.
Yesterday
High -- | Low -- °F
Precip. -- in
Pressure 29.80 in
Visibility 10.0 miles
Clouds Clear
Heat Index 77 °F
Dew Point 46 °F
Humidity 36%
Rainfall 0.00 in
Snow Depth Not available.
6:01 AM 7:56 PM
Waning Crescent, 23% visible
METAR KPMD 290853Z AUTO 19007KT 10SM CLR 27/09 A2991 RMK AO2 SLP089 T02720089 58005 $
Pressure 29.80 in
Visibility 10.0 miles
Clouds Clear
Heat Index 77 °F
Dew Point 46 °F
Humidity 36%
Rainfall 0.00 in
Snow Depth Not available.
6:01 AM 7:56 PM
Waning Crescent, 23% visible
METAR KPMD 290853Z AUTO 19007KT 10SM CLR 27/09 A2991 RMK AO2 SLP089 T02720089 58005 $

10-Day Weather Forecast

Almanac

Astronomy

Jul. 29, 2016 Rise Set
Actual Time
Civil Twilight
Nautical Twilight
Astronomical Twilight
Moon
Length of Visible Light
Length of Day
Tomorrow will be .
, % of the Moon is Illuminated

Today's Extremes

State Highs State Lows

Community

WunderPhotos

Upload Photos

1,928,300 photos uploaded!

WunderBlog® & News

Nearby

Air Quality

  Air Quality AQ Index Pollutant
Not available.

Snow Depth

Station Depth Elevation

Earthquake Activity

City Distance Mag. Time & Date
Minimum magnitude displayed is 2.5.

Coastal Water Temperatures

Place Temperature

Stations

Nearby Weather Stations

Station Location Temp. Windchill Dew Point Humidity Wind Precip. Elev Updated Type
                   

Watches & Warnings

There are currently no watches in effect.